sensor_id;sensor_type;location;lat;lon;timestamp;temperature;humidity
17423;DHT22;8829;47.932;7.810;2022-10-16T00:00:21;15.70;99.90
17423;DHT22;8829;47.932;7.810;2022-10-16T00:02:47;15.80;99.90
17423;DHT22;8829;47.932;7.810;2022-10-16T00:05:14;15.70;99.90
17423;DHT22;8829;47.932;7.810;2022-10-16T00:07:42;15.60;99.90
17423;DHT22;8829;47.932;7.810;2022-10-16T00:10:09;15.50;99.90
17423;DHT22;8829;47.932;7.810;2022-10-16T00:12:36;15.50;99.90
17423;DHT22;8829;47.932;7.810;2022-10-16T00:15:03;15.40;99.90
17423;DHT22;8829;47.932;7.810;2022-10-16T00:17:30;15.30;99.90
17423;DHT22;8829;47.932;7.810;2022-10-16T00:19:56;15.30;99.90
17423;DHT22;8829;47.932;7.810;2022-10-16T00:22:23;15.30;99.90
17423;DHT22;8829;47.932;7.810;2022-10-16T00:24:52;15.30;99.90
17423;DHT22;8829;47.932;7.810;2022-10-16T00:27:18;15.30;99.90
17423;DHT22;8829;47.932;7.810;2022-10-16T00:29:49;15.30;99.90
17423;DHT22;8829;47.932;7.810;2022-10-16T00:32:16;15.30;99.90
17423;DHT22;8829;47.932;7.810;2022-10-16T00:34:43;15.30;99.90
17423;DHT22;8829;47.932;7.810;2022-10-16T00:37:09;15.40;99.90
17423;DHT22;8829;47.932;7.810;2022-10-16T00:39:36;15.40;99.90
17423;DHT22;8829;47.932;7.810;2022-10-16T00:42:05;15.40;99.90
17423;DHT22;8829;47.932;7.810;2022-10-16T00:44:47;15.40;99.90
17423;DHT22;8829;47.932;7.810;2022-10-16T00:47:19;15.40;99.90
17423;DHT22;8829;47.932;7.810;2022-10-16T00:49:49;15.30;99.90
17423;DHT22;8829;47.932;7.810;2022-10-16T00:52:16;15.30;99.90
17423;DHT22;8829;47.932;7.810;2022-10-16T00:54:45;15.30;99.90
17423;DHT22;8829;47.932;7.810;2022-10-16T00:57:14;15.20;99.90
17423;DHT22;8829;47.932;7.810;2022-10-16T00:59:41;15.30;99.90
17423;DHT22;8829;47.932;7.810;2022-10-16T01:02:12;15.30;99.90
17423;DHT22;8829;47.932;7.810;2022-10-16T01:04:40;15.30;99.90
17423;DHT22;8829;47.932;7.810;2022-10-16T01:07:12;15.30;99.90
17423;DHT22;8829;47.932;7.810;2022-10-16T01:09:50;15.30;99.90
17423;DHT22;8829;47.932;7.810;2022-10-16T01:12:26;15.20;99.90
17423;DHT22;8829;47.932;7.810;2022-10-16T01:14:58;15.30;99.90
17423;DHT22;8829;47.932;7.810;2022-10-16T01:17:30;15.20;99.90
17423;DHT22;8829;47.932;7.810;2022-10-16T01:20:07;15.30;99.90
17423;DHT22;8829;47.932;7.810;2022-10-16T01:22:42;15.30;99.90
17423;DHT22;8829;47.932;7.810;2022-10-16T01:25:16;15.40;99.90
17423;DHT22;8829;47.932;7.810;2022-10-16T01:27:48;15.20;99.90
17423;DHT22;8829;47.932;7.810;2022-10-16T01:30:18;15.10;99.90
17423;DHT22;8829;47.932;7.810;2022-10-16T01:32:50;15.10;99.90
17423;DHT22;8829;47.932;7.810;2022-10-16T01:35:22;15.10;99.90
17423;DHT22;8829;47.932;7.810;2022-10-16T01:37:53;15.10;99.90
17423;DHT22;8829;47.932;7.810;2022-10-16T01:40:25;15.30;99.90
17423;DHT22;8829;47.932;7.810;2022-10-16T01:42:56;15.50;99.90
17423;DHT22;8829;47.932;7.810;2022-10-16T01:45:26;15.40;99.90
17423;DHT22;8829;47.932;7.810;2022-10-16T01:47:55;15.40;99.90
17423;DHT22;8829;47.932;7.810;2022-10-16T01:50:24;15.30;99.90
17423;DHT22;8829;47.932;7.810;2022-10-16T01:52:52;15.40;99.90
17423;DHT22;8829;47.932;7.810;2022-10-16T01:55:24;15.60;99.90
17423;DHT22;8829;47.932;7.810;2022-10-16T01:57:55;15.80;99.90
17423;DHT22;8829;47.932;7.810;2022-10-16T02:00:23;16.10;99.90
17423;DHT22;8829;47.932;7.810;2022-10-16T02:02:53;16.20;99.90
17423;DHT22;8829;47.932;7.810;2022-10-16T02:05:23;16.30;99.90
17423;DHT22;8829;47.932;7.810;2022-10-16T02:07:51;16.30;99.90
17423;DHT22;8829;47.932;7.810;2022-10-16T02:10:18;16.30;99.90
17423;DHT22;8829;47.932;7.810;2022-10-16T02:12:50;16.10;99.90
17423;DHT22;8829;47.932;7.810;2022-10-16T02:15:21;16.00;99.90
17423;DHT22;8829;47.932;7.810;2022-10-16T02:17:48;15.80;99.90
17423;DHT22;8829;47.932;7.810;2022-10-16T02:20:15;15.80;99.90
17423;DHT22;8829;47.932;7.810;2022-10-16T02:22:44;15.70;99.90
17423;DHT22;8829;47.932;7.810;2022-10-16T02:25:16;15.60;99.90
17423;DHT22;8829;47.932;7.810;2022-10-16T02:27:48;15.50;99.90
17423;DHT22;8829;47.932;7.810;2022-10-16T02:30:25;15.50;99.90
17423;DHT22;8829;47.932;7.810;2022-10-16T02:32:53;15.70;99.90
17423;DHT22;8829;47.932;7.810;2022-10-16T02:35:21;15.70;99.90
17423;DHT22;8829;47.932;7.810;2022-10-16T02:37:50;15.70;99.90
17423;DHT22;8829;47.932;7.810;2022-10-16T02:40:17;15.60;99.90
17423;DHT22;8829;47.932;7.810;2022-10-16T02:42:44;15.60;99.90
17423;DHT22;8829;47.932;7.810;2022-10-16T02:45:11;15.50;99.90
17423;DHT22;8829;47.932;7.810;2022-10-16T02:47:39;15.50;99.90
17423;DHT22;8829;47.932;7.810;2022-10-16T02:50:07;15.60;99.90
17423;DHT22;8829;47.932;7.810;2022-10-16T02:52:34;15.80;99.90
17423;DHT22;8829;47.932;7.810;2022-10-16T02:55:00;16.10;99.90
17423;DHT22;8829;47.932;7.810;2022-10-16T02:57:27;16.20;99.90
17423;DHT22;8829;47.932;7.810;2022-10-16T02:59:54;16.30;99.90
17423;DHT22;8829;47.932;7.810;2022-10-16T03:02:21;16.40;99.90
17423;DHT22;8829;47.932;7.810;2022-10-16T03:04:49;16.30;99.90
17423;DHT22;8829;47.932;7.810;2022-10-16T03:07:16;16.30;99.90
17423;DHT22;8829;47.932;7.810;2022-10-16T03:09:44;16.30;99.90
17423;DHT22;8829;47.932;7.810;2022-10-16T03:12:10;16.20;99.90
17423;DHT22;8829;47.932;7.810;2022-10-16T03:14:38;16.10;99.90
17423;DHT22;8829;47.932;7.810;2022-10-16T03:17:05;16.00;99.90
17423;DHT22;8829;47.932;7.810;2022-10-16T03:19:32;16.00;99.90
17423;DHT22;8829;47.932;7.810;2022-10-16T03:22:00;15.90;99.90
17423;DHT22;8829;47.932;7.810;2022-10-16T03:24:27;15.90;99.90
17423;DHT22;8829;47.932;7.810;2022-10-16T03:26:53;16.10;99.90
17423;DHT22;8829;47.932;7.810;2022-10-16T03:29:20;16.20;99.90
17423;DHT22;8829;47.932;7.810;2022-10-16T03:31:47;16.30;99.90
17423;DHT22;8829;47.932;7.810;2022-10-16T03:34:14;16.30;99.90
17423;DHT22;8829;47.932;7.810;2022-10-16T03:36:41;16.40;99.90
17423;DHT22;8829;47.932;7.810;2022-10-16T03:39:09;16.40;99.90
17423;DHT22;8829;47.932;7.810;2022-10-16T03:41:36;16.40;99.90
17423;DHT22;8829;47.932;7.810;2022-10-16T03:44:04;16.40;99.90
17423;DHT22;8829;47.932;7.810;2022-10-16T03:46:31;16.40;99.90
17423;DHT22;8829;47.932;7.810;2022-10-16T03:48:58;16.40;99.90
17423;DHT22;8829;47.932;7.810;2022-10-16T03:51:24;16.50;99.90
17423;DHT22;8829;47.932;7.810;2022-10-16T03:53:51;16.50;99.90
17423;DHT22;8829;47.932;7.810;2022-10-16T03:56:19;16.40;99.90
17423;DHT22;8829;47.932;7.810;2022-10-16T03:58:46;16.30;99.90
17423;DHT22;8829;47.932;7.810;2022-10-16T04:01:13;16.20;99.90
17423;DHT22;8829;47.932;7.810;2022-10-16T04:03:39;16.10;99.90
17423;DHT22;8829;47.932;7.810;2022-10-16T04:06:06;16.00;99.90
17423;DHT22;8829;47.932;7.810;2022-10-16T04:08:34;15.80;99.90
17423;DHT22;8829;47.932;7.810;2022-10-16T04:11:02;15.80;99.90
17423;DHT22;8829;47.932;7.810;2022-10-16T04:13:30;15.70;99.90
17423;DHT22;8829;47.932;7.810;2022-10-16T04:15:56;15.70;99.90
17423;DHT22;8829;47.932;7.810;2022-10-16T04:18:23;15.80;99.90
17423;DHT22;8829;47.932;7.810;2022-10-16T04:20:52;15.90;99.90
17423;DHT22;8829;47.932;7.810;2022-10-16T04:23:19;15.80;99.90
17423;DHT22;8829;47.932;7.810;2022-10-16T04:25:46;15.80;99.90
17423;DHT22;8829;47.932;7.810;2022-10-16T04:28:13;15.70;99.90
17423;DHT22;8829;47.932;7.810;2022-10-16T04:30:41;15.70;99.90
17423;DHT22;8829;47.932;7.810;2022-10-16T04:33:08;15.70;99.90
17423;DHT22;8829;47.932;7.810;2022-10-16T04:35:35;15.70;99.90
17423;DHT22;8829;47.932;7.810;2022-10-16T04:38:02;15.70;99.90
17423;DHT22;8829;47.932;7.810;2022-10-16T04:40:29;15.70;99.90
17423;DHT22;8829;47.932;7.810;2022-10-16T04:42:58;15.70;99.90
17423;DHT22;8829;47.932;7.810;2022-10-16T04:45:25;15.60;99.90
17423;DHT22;8829;47.932;7.810;2022-10-16T04:47:53;15.70;99.90
17423;DHT22;8829;47.932;7.810;2022-10-16T04:50:22;15.80;99.90
17423;DHT22;8829;47.932;7.810;2022-10-16T04:52:49;15.90;99.90
17423;DHT22;8829;47.932;7.810;2022-10-16T04:55:16;15.90;99.90
17423;DHT22;8829;47.932;7.810;2022-10-16T04:57:42;15.80;99.90
17423;DHT22;8829;47.932;7.810;2022-10-16T05:00:10;15.80;99.90
17423;DHT22;8829;47.932;7.810;2022-10-16T05:02:37;15.90;99.90
17423;DHT22;8829;47.932;7.810;2022-10-16T05:05:06;16.00;99.90
17423;DHT22;8829;47.932;7.810;2022-10-16T05:07:32;16.00;99.90
17423;DHT22;8829;47.932;7.810;2022-10-16T05:09:59;16.10;99.90
17423;DHT22;8829;47.932;7.810;2022-10-16T05:12:26;16.00;99.90
17423;DHT22;8829;47.932;7.810;2022-10-16T05:14:53;16.00;99.90
17423;DHT22;8829;47.932;7.810;2022-10-16T05:17:23;15.90;99.90
17423;DHT22;8829;47.932;7.810;2022-10-16T05:19:50;15.80;99.90
17423;DHT22;8829;47.932;7.810;2022-10-16T05:22:19;15.80;99.90
17423;DHT22;8829;47.932;7.810;2022-10-16T05:24:45;16.00;99.90
17423;DHT22;8829;47.932;7.810;2022-10-16T05:27:12;16.20;99.90
17423;DHT22;8829;47.932;7.810;2022-10-16T05:29:44;16.30;99.90
17423;DHT22;8829;47.932;7.810;2022-10-16T05:32:11;16.30;99.90
17423;DHT22;8829;47.932;7.810;2022-10-16T05:34:38;16.30;99.90
17423;DHT22;8829;47.932;7.810;2022-10-16T05:37:04;16.30;99.90
17423;DHT22;8829;47.932;7.810;2022-10-16T05:39:33;16.40;99.90
17423;DHT22;8829;47.932;7.810;2022-10-16T05:41:59;16.40;99.90
17423;DHT22;8829;47.932;7.810;2022-10-16T05:44:26;16.40;99.90
17423;DHT22;8829;47.932;7.810;2022-10-16T05:46:53;16.40;99.90
17423;DHT22;8829;47.932;7.810;2022-10-16T05:49:20;16.50;99.90
17423;DHT22;8829;47.932;7.810;2022-10-16T05:51:47;16.70;99.90
17423;DHT22;8829;47.932;7.810;2022-10-16T05:54:14;16.80;99.90
17423;DHT22;8829;47.932;7.810;2022-10-16T05:56:42;16.90;99.90
17423;DHT22;8829;47.932;7.810;2022-10-16T05:59:09;16.80;99.90
17423;DHT22;8829;47.932;7.810;2022-10-16T06:01:35;16.80;99.90
17423;DHT22;8829;47.932;7.810;2022-10-16T06:04:02;16.70;99.90
17423;DHT22;8829;47.932;7.810;2022-10-16T06:06:29;16.80;99.90
17423;DHT22;8829;47.932;7.810;2022-10-16T06:08:57;17.10;99.90
17423;DHT22;8829;47.932;7.810;2022-10-16T06:11:26;17.30;99.90
17423;DHT22;8829;47.932;7.810;2022-10-16T06:13:56;17.30;99.90
17423;DHT22;8829;47.932;7.810;2022-10-16T06:16:23;17.30;99.90
17423;DHT22;8829;47.932;7.810;2022-10-16T06:18:51;17.20;99.90
17423;DHT22;8829;47.932;7.810;2022-10-16T06:21:19;17.10;99.90
17423;DHT22;8829;47.932;7.810;2022-10-16T06:23:47;17.00;99.90
17423;DHT22;8829;47.932;7.810;2022-10-16T06:26:15;16.90;99.90
17423;DHT22;8829;47.932;7.810;2022-10-16T06:28:43;17.10;99.90
17423;DHT22;8829;47.932;7.810;2022-10-16T06:31:12;17.20;99.90
17423;DHT22;8829;47.932;7.810;2022-10-16T06:33:39;17.20;99.90
17423;DHT22;8829;47.932;7.810;2022-10-16T06:36:08;17.20;99.90
17423;DHT22;8829;47.932;7.810;2022-10-16T06:38:37;17.10;99.90
17423;DHT22;8829;47.932;7.810;2022-10-16T06:41:05;17.10;99.90
17423;DHT22;8829;47.932;7.810;2022-10-16T06:43:32;17.00;99.90
17423;DHT22;8829;47.932;7.810;2022-10-16T06:46:01;16.90;99.90
17423;DHT22;8829;47.932;7.810;2022-10-16T06:48:30;16.80;99.90
17423;DHT22;8829;47.932;7.810;2022-10-16T06:50:58;16.80;99.90
17423;DHT22;8829;47.932;7.810;2022-10-16T06:53:26;16.80;99.90
17423;DHT22;8829;47.932;7.810;2022-10-16T06:55:53;16.70;99.90
17423;DHT22;8829;47.932;7.810;2022-10-16T06:58:20;16.70;99.90
17423;DHT22;8829;47.932;7.810;2022-10-16T07:00:48;16.70;99.90
17423;DHT22;8829;47.932;7.810;2022-10-16T07:03:16;16.70;99.90
17423;DHT22;8829;47.932;7.810;2022-10-16T07:05:44;16.60;99.90
17423;DHT22;8829;47.932;7.810;2022-10-16T07:08:11;16.50;99.90
17423;DHT22;8829;47.932;7.810;2022-10-16T07:10:37;16.40;99.90
17423;DHT22;8829;47.932;7.810;2022-10-16T07:13:04;16.50;99.90
17423;DHT22;8829;47.932;7.810;2022-10-16T07:15:34;16.50;99.90
17423;DHT22;8829;47.932;7.810;2022-10-16T07:18:00;16.50;99.90
17423;DHT22;8829;47.932;7.810;2022-10-16T07:20:27;16.60;99.90
17423;DHT22;8829;47.932;7.810;2022-10-16T07:22:55;16.60;99.90
17423;DHT22;8829;47.932;7.810;2022-10-16T07:25:22;16.60;99.90
17423;DHT22;8829;47.932;7.810;2022-10-16T07:27:49;16.70;99.90
17423;DHT22;8829;47.932;7.810;2022-10-16T07:30:15;16.60;99.90
17423;DHT22;8829;47.932;7.810;2022-10-16T07:32:42;16.60;99.90
17423;DHT22;8829;47.932;7.810;2022-10-16T07:35:09;16.70;99.90
17423;DHT22;8829;47.932;7.810;2022-10-16T07:37:36;16.80;99.90
17423;DHT22;8829;47.932;7.810;2022-10-16T07:40:05;16.80;99.90
17423;DHT22;8829;47.932;7.810;2022-10-16T07:42:32;16.80;99.90
17423;DHT22;8829;47.932;7.810;2022-10-16T07:44:59;16.90;99.90
17423;DHT22;8829;47.932;7.810;2022-10-16T07:47:25;17.10;99.90
17423;DHT22;8829;47.932;7.810;2022-10-16T07:49:52;17.30;99.90
17423;DHT22;8829;47.932;7.810;2022-10-16T07:52:19;17.30;99.90
17423;DHT22;8829;47.932;7.810;2022-10-16T07:54:46;17.40;99.90
17423;DHT22;8829;47.932;7.810;2022-10-16T07:57:14;17.30;99.90
17423;DHT22;8829;47.932;7.810;2022-10-16T07:59:44;17.30;99.90
17423;DHT22;8829;47.932;7.810;2022-10-16T08:02:11;17.30;99.90
17423;DHT22;8829;47.932;7.810;2022-10-16T08:04:38;17.30;99.90
17423;DHT22;8829;47.932;7.810;2022-10-16T08:07:06;17.50;99.90
17423;DHT22;8829;47.932;7.810;2022-10-16T08:09:33;17.70;99.90
17423;DHT22;8829;47.932;7.810;2022-10-16T08:12:00;17.90;99.90
17423;DHT22;8829;47.932;7.810;2022-10-16T08:14:29;18.00;99.90
17423;DHT22;8829;47.932;7.810;2022-10-16T08:16:55;18.20;99.90
17423;DHT22;8829;47.932;7.810;2022-10-16T08:19:22;18.20;99.90
17423;DHT22;8829;47.932;7.810;2022-10-16T08:21:49;18.20;99.90
17423;DHT22;8829;47.932;7.810;2022-10-16T08:24:16;18.40;99.90
17423;DHT22;8829;47.932;7.810;2022-10-16T08:26:42;18.50;99.90
17423;DHT22;8829;47.932;7.810;2022-10-16T08:29:09;18.60;99.90
17423;DHT22;8829;47.932;7.810;2022-10-16T08:31:37;18.70;99.90
17423;DHT22;8829;47.932;7.810;2022-10-16T08:34:04;18.90;99.90
17423;DHT22;8829;47.932;7.810;2022-10-16T08:36:30;19.10;99.90
17423;DHT22;8829;47.932;7.810;2022-10-16T08:38:57;19.30;99.90
17423;DHT22;8829;47.932;7.810;2022-10-16T08:41:39;19.50;99.90
17423;DHT22;8829;47.932;7.810;2022-10-16T08:44:35;19.70;99.90
17423;DHT22;8829;47.932;7.810;2022-10-16T08:47:13;19.90;99.90
17423;DHT22;8829;47.932;7.810;2022-10-16T08:49:53;19.90;99.90
17423;DHT22;8829;47.932;7.810;2022-10-16T08:52:22;19.70;99.90
17423;DHT22;8829;47.932;7.810;2022-10-16T08:54:53;19.70;99.90
17423;DHT22;8829;47.932;7.810;2022-10-16T08:57:23;19.50;99.90
17423;DHT22;8829;47.932;7.810;2022-10-16T08:59:52;19.40;99.90
17423;DHT22;8829;47.932;7.810;2022-10-16T09:02:26;19.20;99.90
17423;DHT22;8829;47.932;7.810;2022-10-16T09:05:17;19.00;99.90
17423;DHT22;8829;47.932;7.810;2022-10-16T09:07:54;18.90;99.90
17423;DHT22;8829;47.932;7.810;2022-10-16T09:10:33;19.00;99.90
17423;DHT22;8829;47.932;7.810;2022-10-16T09:13:09;19.10;99.90
17423;DHT22;8829;47.932;7.810;2022-10-16T09:15:46;19.30;99.90
17423;DHT22;8829;47.932;7.810;2022-10-16T09:18:21;19.60;99.90
17423;DHT22;8829;47.932;7.810;2022-10-16T09:20:55;19.50;99.90
17423;DHT22;8829;47.932;7.810;2022-10-16T09:23:27;19.50;99.90
17423;DHT22;8829;47.932;7.810;2022-10-16T09:25:56;19.70;99.90
17423;DHT22;8829;47.932;7.810;2022-10-16T09:28:24;19.80;99.90
17423;DHT22;8829;47.932;7.810;2022-10-16T09:30:51;19.90;99.90
17423;DHT22;8829;47.932;7.810;2022-10-16T09:33:22;20.00;99.90
17423;DHT22;8829;47.932;7.810;2022-10-16T09:35:51;20.00;99.90
17423;DHT22;8829;47.932;7.810;2022-10-16T09:38:24;20.00;99.90
17423;DHT22;8829;47.932;7.810;2022-10-16T09:40:52;20.20;99.90
17423;DHT22;8829;47.932;7.810;2022-10-16T09:43:22;20.30;99.90
17423;DHT22;8829;47.932;7.810;2022-10-16T09:45:57;20.30;99.90
17423;DHT22;8829;47.932;7.810;2022-10-16T09:48:28;20.40;99.90
17423;DHT22;8829;47.932;7.810;2022-10-16T09:50:59;20.40;99.90
17423;DHT22;8829;47.932;7.810;2022-10-16T09:53:38;20.50;99.90
17423;DHT22;8829;47.932;7.810;2022-10-16T09:56:05;20.80;99.90
17423;DHT22;8829;47.932;7.810;2022-10-16T09:58:33;21.00;99.90
17423;DHT22;8829;47.932;7.810;2022-10-16T10:00:59;21.10;99.90
17423;DHT22;8829;47.932;7.810;2022-10-16T10:03:35;21.30;99.90
17423;DHT22;8829;47.932;7.810;2022-10-16T10:06:07;21.50;99.90
17423;DHT22;8829;47.932;7.810;2022-10-16T10:08:53;21.70;99.90
17423;DHT22;8829;47.932;7.810;2022-10-16T10:11:38;21.80;99.90
17423;DHT22;8829;47.932;7.810;2022-10-16T10:14:06;22.00;99.90
17423;DHT22;8829;47.932;7.810;2022-10-16T10:16:32;22.20;99.90
17423;DHT22;8829;47.932;7.810;2022-10-16T10:19:00;22.30;99.90
17423;DHT22;8829;47.932;7.810;2022-10-16T10:21:27;22.40;99.90
17423;DHT22;8829;47.932;7.810;2022-10-16T10:23:57;22.50;99.90
17423;DHT22;8829;47.932;7.810;2022-10-16T10:26:27;22.10;99.90
17423;DHT22;8829;47.932;7.810;2022-10-16T10:28:59;22.50;99.90
17423;DHT22;8829;47.932;7.810;2022-10-16T10:31:34;22.60;99.90
17423;DHT22;8829;47.932;7.810;2022-10-16T10:34:18;22.80;99.90
17423;DHT22;8829;47.932;7.810;2022-10-16T10:36:53;22.70;99.90
17423;DHT22;8829;47.932;7.810;2022-10-16T10:39:27;22.70;99.90
17423;DHT22;8829;47.932;7.810;2022-10-16T10:45:14;22.70;99.90
17423;DHT22;8829;47.932;7.810;2022-10-16T10:47:50;22.70;99.90
17423;DHT22;8829;47.932;7.810;2022-10-16T10:50:25;22.50;99.90
17423;DHT22;8829;47.932;7.810;2022-10-16T10:53:01;22.40;99.90
17423;DHT22;8829;47.932;7.810;2022-10-16T10:55:39;22.40;99.90
17423;DHT22;8829;47.932;7.810;2022-10-16T10:58:37;22.40;99.90
17423;DHT22;8829;47.932;7.810;2022-10-16T11:01:09;22.60;99.90
17423;DHT22;8829;47.932;7.810;2022-10-16T11:03:59;22.70;99.90
17423;DHT22;8829;47.932;7.810;2022-10-16T11:06:35;22.90;99.90
17423;DHT22;8829;47.932;7.810;2022-10-16T11:09:10;23.00;99.90
17423;DHT22;8829;47.932;7.810;2022-10-16T11:11:42;23.00;99.90
17423;DHT22;8829;47.932;7.810;2022-10-16T11:14:15;23.10;99.90
17423;DHT22;8829;47.932;7.810;2022-10-16T11:16:47;23.00;99.90
17423;DHT22;8829;47.932;7.810;2022-10-16T11:19:25;23.20;99.90
17423;DHT22;8829;47.932;7.810;2022-10-16T11:22:01;23.10;99.90
17423;DHT22;8829;47.932;7.810;2022-10-16T11:24:37;23.10;99.90
17423;DHT22;8829;47.932;7.810;2022-10-16T11:27:09;23.10;99.90
17423;DHT22;8829;47.932;7.810;2022-10-16T11:29:44;23.00;99.90
17423;DHT22;8829;47.932;7.810;2022-10-16T11:32:20;22.80;99.90
17423;DHT22;8829;47.932;7.810;2022-10-16T11:34:53;22.80;99.90
17423;DHT22;8829;47.932;7.810;2022-10-16T11:37:25;22.90;99.90
17423;DHT22;8829;47.932;7.810;2022-10-16T11:40:02;23.00;99.90
17423;DHT22;8829;47.932;7.810;2022-10-16T11:42:36;23.00;99.90
17423;DHT22;8829;47.932;7.810;2022-10-16T11:45:12;23.20;99.90
17423;DHT22;8829;47.932;7.810;2022-10-16T11:47:45;23.20;99.90
17423;DHT22;8829;47.932;7.810;2022-10-16T11:50:19;23.30;99.90
17423;DHT22;8829;47.932;7.810;2022-10-16T11:52:53;23.30;99.90
17423;DHT22;8829;47.932;7.810;2022-10-16T11:55:24;23.20;99.90
17423;DHT22;8829;47.932;7.810;2022-10-16T11:57:59;23.00;99.90
17423;DHT22;8829;47.932;7.810;2022-10-16T12:00:30;22.90;99.90
17423;DHT22;8829;47.932;7.810;2022-10-16T12:03:05;22.80;99.90
17423;DHT22;8829;47.932;7.810;2022-10-16T12:05:58;22.60;99.90
17423;DHT22;8829;47.932;7.810;2022-10-16T12:08:28;22.50;99.90
17423;DHT22;8829;47.932;7.810;2022-10-16T12:11:06;22.40;99.90
17423;DHT22;8829;47.932;7.810;2022-10-16T12:13:35;22.40;99.90
17423;DHT22;8829;47.932;7.810;2022-10-16T12:16:07;22.30;99.90
17423;DHT22;8829;47.932;7.810;2022-10-16T12:18:46;22.40;99.90
17423;DHT22;8829;47.932;7.810;2022-10-16T12:21:14;22.40;99.90
17423;DHT22;8829;47.932;7.810;2022-10-16T12:23:49;22.50;99.90
17423;DHT22;8829;47.932;7.810;2022-10-16T12:26:24;22.50;99.90
17423;DHT22;8829;47.932;7.810;2022-10-16T12:28:52;22.60;99.90
17423;DHT22;8829;47.932;7.810;2022-10-16T12:31:18;22.70;99.90
17423;DHT22;8829;47.932;7.810;2022-10-16T12:33:56;22.80;99.90
17423;DHT22;8829;47.932;7.810;2022-10-16T12:36:28;22.90;99.90
17423;DHT22;8829;47.932;7.810;2022-10-16T12:38:57;22.90;99.90
17423;DHT22;8829;47.932;7.810;2022-10-16T12:41:26;23.00;99.90
17423;DHT22;8829;47.932;7.810;2022-10-16T12:43:53;23.00;99.90
17423;DHT22;8829;47.932;7.810;2022-10-16T12:46:33;23.00;99.90
17423;DHT22;8829;47.932;7.810;2022-10-16T12:49:15;22.90;99.90
17423;DHT22;8829;47.932;7.810;2022-10-16T12:51:46;22.90;99.90
17423;DHT22;8829;47.932;7.810;2022-10-16T12:54:16;22.80;99.90
17423;DHT22;8829;47.932;7.810;2022-10-16T12:56:53;22.80;99.90
17423;DHT22;8829;47.932;7.810;2022-10-16T12:59:29;22.70;99.90
17423;DHT22;8829;47.932;7.810;2022-10-16T13:02:14;22.70;99.90
17423;DHT22;8829;47.932;7.810;2022-10-16T13:04:58;22.60;99.90
17423;DHT22;8829;47.932;7.810;2022-10-16T13:07:48;22.50;99.90
17423;DHT22;8829;47.932;7.810;2022-10-16T13:10:25;22.50;99.90
17423;DHT22;8829;47.932;7.810;2022-10-16T13:13:24;22.50;99.90
17423;DHT22;8829;47.932;7.810;2022-10-16T13:16:10;22.40;99.90
17423;DHT22;8829;47.932;7.810;2022-10-16T13:18:46;22.40;99.90
17423;DHT22;8829;47.932;7.810;2022-10-16T13:21:25;22.40;99.90
17423;DHT22;8829;47.932;7.810;2022-10-16T13:24:04;22.50;99.90
17423;DHT22;8829;47.932;7.810;2022-10-16T13:26:40;22.50;99.90
17423;DHT22;8829;47.932;7.810;2022-10-16T13:29:09;22.50;99.90
17423;DHT22;8829;47.932;7.810;2022-10-16T13:31:38;22.50;99.90
17423;DHT22;8829;47.932;7.810;2022-10-16T13:34:06;22.50;99.90
17423;DHT22;8829;47.932;7.810;2022-10-16T13:36:44;22.50;99.90
17423;DHT22;8829;47.932;7.810;2022-10-16T13:39:13;22.40;99.90
17423;DHT22;8829;47.932;7.810;2022-10-16T13:41:41;22.40;99.90
17423;DHT22;8829;47.932;7.810;2022-10-16T13:44:15;22.40;99.90
17423;DHT22;8829;47.932;7.810;2022-10-16T13:46:45;22.40;99.90
17423;DHT22;8829;47.932;7.810;2022-10-16T13:49:13;22.30;99.90
17423;DHT22;8829;47.932;7.810;2022-10-16T13:51:40;22.10;99.90
17423;DHT22;8829;47.932;7.810;2022-10-16T13:54:09;22.10;99.90
17423;DHT22;8829;47.932;7.810;2022-10-16T13:56:40;22.00;99.90
17423;DHT22;8829;47.932;7.810;2022-10-16T13:59:23;21.90;99.90
17423;DHT22;8829;47.932;7.810;2022-10-16T14:01:52;21.80;99.90
17423;DHT22;8829;47.932;7.810;2022-10-16T14:04:20;21.70;99.90
17423;DHT22;8829;47.932;7.810;2022-10-16T14:06:49;21.50;99.90
17423;DHT22;8829;47.932;7.810;2022-10-16T14:09:22;21.60;99.90
17423;DHT22;8829;47.932;7.810;2022-10-16T14:11:53;21.50;99.90
17423;DHT22;8829;47.932;7.810;2022-10-16T14:14:22;21.50;99.90
17423;DHT22;8829;47.932;7.810;2022-10-16T14:16:49;21.50;99.90
17423;DHT22;8829;47.932;7.810;2022-10-16T14:19:20;21.50;99.90
17423;DHT22;8829;47.932;7.810;2022-10-16T14:21:48;21.40;99.90
17423;DHT22;8829;47.932;7.810;2022-10-16T14:24:25;21.50;99.90
17423;DHT22;8829;47.932;7.810;2022-10-16T14:26:54;21.50;99.90
17423;DHT22;8829;47.932;7.810;2022-10-16T14:29:24;21.50;99.90
17423;DHT22;8829;47.932;7.810;2022-10-16T14:31:55;21.60;99.90
17423;DHT22;8829;47.932;7.810;2022-10-16T14:34:27;21.60;99.90
17423;DHT22;8829;47.932;7.810;2022-10-16T14:36:54;21.60;99.90
17423;DHT22;8829;47.932;7.810;2022-10-16T14:39:22;21.70;99.90
17423;DHT22;8829;47.932;7.810;2022-10-16T14:41:51;21.70;99.90
17423;DHT22;8829;47.932;7.810;2022-10-16T14:44:26;21.70;99.90
17423;DHT22;8829;47.932;7.810;2022-10-16T14:46:54;21.60;99.90
17423;DHT22;8829;47.932;7.810;2022-10-16T14:49:22;21.40;99.90
17423;DHT22;8829;47.932;7.810;2022-10-16T14:51:50;21.40;99.90
17423;DHT22;8829;47.932;7.810;2022-10-16T14:54:19;21.40;99.90
17423;DHT22;8829;47.932;7.810;2022-10-16T14:56:48;21.50;99.90
17423;DHT22;8829;47.932;7.810;2022-10-16T14:59:22;21.50;99.90
17423;DHT22;8829;47.932;7.810;2022-10-16T15:01:51;21.50;99.90
17423;DHT22;8829;47.932;7.810;2022-10-16T15:04:17;21.40;99.90
17423;DHT22;8829;47.932;7.810;2022-10-16T15:06:44;21.30;99.90
17423;DHT22;8829;47.932;7.810;2022-10-16T15:09:11;21.30;99.90
17423;DHT22;8829;47.932;7.810;2022-10-16T15:11:38;21.30;99.90
17423;DHT22;8829;47.932;7.810;2022-10-16T15:14:05;21.20;99.90
17423;DHT22;8829;47.932;7.810;2022-10-16T15:16:33;21.20;99.90
17423;DHT22;8829;47.932;7.810;2022-10-16T15:19:00;21.10;99.90
17423;DHT22;8829;47.932;7.810;2022-10-16T15:21:30;21.10;99.90
17423;DHT22;8829;47.932;7.810;2022-10-16T15:23:57;21.00;99.90
17423;DHT22;8829;47.932;7.810;2022-10-16T15:26:25;21.00;99.90
17423;DHT22;8829;47.932;7.810;2022-10-16T15:28:51;20.90;99.90
17423;DHT22;8829;47.932;7.810;2022-10-16T15:31:18;20.80;99.90
17423;DHT22;8829;47.932;7.810;2022-10-16T15:33:49;20.70;99.90
17423;DHT22;8829;47.932;7.810;2022-10-16T15:36:25;20.60;99.90
17423;DHT22;8829;47.932;7.810;2022-10-16T15:38:52;20.40;99.90
17423;DHT22;8829;47.932;7.810;2022-10-16T15:41:19;20.30;99.90
17423;DHT22;8829;47.932;7.810;2022-10-16T15:43:48;20.20;99.90
17423;DHT22;8829;47.932;7.810;2022-10-16T15:46:17;20.00;99.90
17423;DHT22;8829;47.932;7.810;2022-10-16T15:48:44;19.80;99.90
17423;DHT22;8829;47.932;7.810;2022-10-16T15:51:12;19.60;99.90
17423;DHT22;8829;47.932;7.810;2022-10-16T15:53:39;19.50;99.90
17423;DHT22;8829;47.932;7.810;2022-10-16T15:56:07;19.30;99.90
17423;DHT22;8829;47.932;7.810;2022-10-16T15:58:34;19.30;99.90
17423;DHT22;8829;47.932;7.810;2022-10-16T16:01:01;19.20;99.90
17423;DHT22;8829;47.932;7.810;2022-10-16T16:03:30;19.20;99.90
17423;DHT22;8829;47.932;7.810;2022-10-16T16:05:58;19.30;99.90